Miller City, Ohio
Current Conditions -  °F | °C
As of 8:53 AM on Monday 26 Jan 2015 (Local Time) from KDFI Reporting Station
Clear Clear  
Wind Chill:   Ceiling: Unl
Heat Index: 11°   Visibility: 10mi
Dew Point:   Wind: 7mph
Humidity: 77%   Direction: 350°N
Pressure: 29.95"   Gusts: NA
Location:  41.1°N, 84.13°W
Report Text: KDFI 261353Z AUTO 35006KT 10SM CLR M12/M15 A2995 RMK AO2 SLP155 T11171150
Loading
Personal Weather Stations






























Interactive Weather Map New forecast layout! Learn more

10-Day Weather Forecast

Advertisements
Track Severe Weather on mobile